sensor_id;sensor_type;location;lat;lon;timestamp;P1;durP1;ratioP1;P2;durP2;ratioP2
6537;SDS011;3302;52.508;13.454;2022-08-03T00:00:54;6.33;;;3.90;;
6537;SDS011;3302;52.508;13.454;2022-08-03T00:03:20;6.20;;;3.50;;
6537;SDS011;3302;52.508;13.454;2022-08-03T00:05:46;4.93;;;3.10;;
6537;SDS011;3302;52.508;13.454;2022-08-03T00:08:11;5.33;;;3.53;;
6537;SDS011;3302;52.508;13.454;2022-08-03T00:10:37;4.80;;;3.77;;
6537;SDS011;3302;52.508;13.454;2022-08-03T00:13:03;6.40;;;3.97;;
6537;SDS011;3302;52.508;13.454;2022-08-03T00:15:29;5.40;;;4.17;;
6537;SDS011;3302;52.508;13.454;2022-08-03T00:17:55;6.50;;;3.70;;
6537;SDS011;3302;52.508;13.454;2022-08-03T00:20:20;4.47;;;3.37;;
6537;SDS011;3302;52.508;13.454;2022-08-03T00:22:46;12.60;;;4.07;;
6537;SDS011;3302;52.508;13.454;2022-08-03T00:25:12;4.40;;;3.30;;
6537;SDS011;3302;52.508;13.454;2022-08-03T00:27:38;8.33;;;3.87;;
6537;SDS011;3302;52.508;13.454;2022-08-03T00:30:04;6.90;;;3.87;;
6537;SDS011;3302;52.508;13.454;2022-08-03T00:32:30;11.70;;;3.97;;
6537;SDS011;3302;52.508;13.454;2022-08-03T00:34:56;6.10;;;3.80;;
6537;SDS011;3302;52.508;13.454;2022-08-03T00:37:22;7.90;;;3.20;;
6537;SDS011;3302;52.508;13.454;2022-08-03T00:39:47;6.20;;;3.40;;
6537;SDS011;3302;52.508;13.454;2022-08-03T00:42:13;7.07;;;3.37;;
6537;SDS011;3302;52.508;13.454;2022-08-03T00:44:40;6.53;;;3.70;;
6537;SDS011;3302;52.508;13.454;2022-08-03T00:47:07;4.80;;;3.60;;
6537;SDS011;3302;52.508;13.454;2022-08-03T00:49:37;5.63;;;3.73;;
6537;SDS011;3302;52.508;13.454;2022-08-03T00:52:04;5.70;;;3.70;;
6537;SDS011;3302;52.508;13.454;2022-08-03T00:54:32;8.10;;;4.30;;
6537;SDS011;3302;52.508;13.454;2022-08-03T00:56:59;4.47;;;4.07;;
6537;SDS011;3302;52.508;13.454;2022-08-03T00:59:26;5.23;;;3.33;;
6537;SDS011;3302;52.508;13.454;2022-08-03T01:01:52;5.20;;;3.87;;
6537;SDS011;3302;52.508;13.454;2022-08-03T01:04:18;5.63;;;3.53;;
6537;SDS011;3302;52.508;13.454;2022-08-03T01:09:37;5.73;;;3.60;;
6537;SDS011;3302;52.508;13.454;2022-08-03T01:12:16;6.00;;;3.70;;
6537;SDS011;3302;52.508;13.454;2022-08-03T01:18:07;5.97;;;3.70;;
6537;SDS011;3302;52.508;13.454;2022-08-03T01:20:39;5.40;;;3.67;;
6537;SDS011;3302;52.508;13.454;2022-08-03T01:23:10;5.93;;;3.63;;
6537;SDS011;3302;52.508;13.454;2022-08-03T01:26:05;5.40;;;3.67;;
6537;SDS011;3302;52.508;13.454;2022-08-03T01:28:50;5.73;;;3.77;;
6537;SDS011;3302;52.508;13.454;2022-08-03T01:31:31;6.00;;;3.53;;
6537;SDS011;3302;52.508;13.454;2022-08-03T01:34:05;4.77;;;3.47;;
6537;SDS011;3302;52.508;13.454;2022-08-03T01:36:34;7.57;;;3.60;;
6537;SDS011;3302;52.508;13.454;2022-08-03T01:39:08;5.30;;;3.43;;
6537;SDS011;3302;52.508;13.454;2022-08-03T01:41:43;5.37;;;4.17;;
6537;SDS011;3302;52.508;13.454;2022-08-03T01:44:13;5.90;;;3.43;;
6537;SDS011;3302;52.508;13.454;2022-08-03T01:46:40;7.57;;;3.43;;
6537;SDS011;3302;52.508;13.454;2022-08-03T01:49:08;6.37;;;3.60;;
6537;SDS011;3302;52.508;13.454;2022-08-03T01:51:36;6.80;;;3.30;;
6537;SDS011;3302;52.508;13.454;2022-08-03T01:54:03;3.90;;;3.43;;
6537;SDS011;3302;52.508;13.454;2022-08-03T01:56:31;4.43;;;3.33;;
6537;SDS011;3302;52.508;13.454;2022-08-03T01:58:57;6.07;;;3.50;;
6537;SDS011;3302;52.508;13.454;2022-08-03T02:01:26;6.70;;;3.67;;
6537;SDS011;3302;52.508;13.454;2022-08-03T02:03:53;4.80;;;3.63;;
6537;SDS011;3302;52.508;13.454;2022-08-03T02:06:21;6.57;;;4.13;;
6537;SDS011;3302;52.508;13.454;2022-08-03T02:08:48;6.77;;;3.70;;
6537;SDS011;3302;52.508;13.454;2022-08-03T02:11:16;5.47;;;3.67;;
6537;SDS011;3302;52.508;13.454;2022-08-03T02:13:42;5.47;;;3.50;;
6537;SDS011;3302;52.508;13.454;2022-08-03T02:16:10;5.33;;;3.67;;
6537;SDS011;3302;52.508;13.454;2022-08-03T02:18:38;6.00;;;3.20;;
6537;SDS011;3302;52.508;13.454;2022-08-03T02:21:06;5.10;;;3.13;;
6537;SDS011;3302;52.508;13.454;2022-08-03T02:23:35;5.30;;;3.67;;
6537;SDS011;3302;52.508;13.454;2022-08-03T02:26:02;4.10;;;3.53;;
6537;SDS011;3302;52.508;13.454;2022-08-03T02:28:31;6.23;;;3.80;;
6537;SDS011;3302;52.508;13.454;2022-08-03T02:31:01;6.13;;;3.90;;
6537;SDS011;3302;52.508;13.454;2022-08-03T02:33:31;5.70;;;3.50;;
6537;SDS011;3302;52.508;13.454;2022-08-03T02:36:03;3.53;;;3.07;;
6537;SDS011;3302;52.508;13.454;2022-08-03T02:38:31;4.20;;;3.43;;
6537;SDS011;3302;52.508;13.454;2022-08-03T02:41:01;5.17;;;3.50;;
6537;SDS011;3302;52.508;13.454;2022-08-03T02:43:31;6.27;;;3.70;;
6537;SDS011;3302;52.508;13.454;2022-08-03T02:45:59;4.63;;;3.23;;
6537;SDS011;3302;52.508;13.454;2022-08-03T02:48:26;4.57;;;3.50;;
6537;SDS011;3302;52.508;13.454;2022-08-03T02:50:55;4.67;;;3.90;;
6537;SDS011;3302;52.508;13.454;2022-08-03T02:53:22;4.60;;;3.70;;
6537;SDS011;3302;52.508;13.454;2022-08-03T02:55:49;4.33;;;3.53;;
6537;SDS011;3302;52.508;13.454;2022-08-03T02:58:16;6.87;;;4.07;;
6537;SDS011;3302;52.508;13.454;2022-08-03T03:00:45;6.37;;;3.87;;
6537;SDS011;3302;52.508;13.454;2022-08-03T03:03:12;6.40;;;3.93;;
6537;SDS011;3302;52.508;13.454;2022-08-03T03:05:39;5.63;;;3.60;;
6537;SDS011;3302;52.508;13.454;2022-08-03T03:08:06;5.03;;;3.53;;
6537;SDS011;3302;52.508;13.454;2022-08-03T03:10:32;7.13;;;3.53;;
6537;SDS011;3302;52.508;13.454;2022-08-03T03:12:58;4.93;;;3.47;;
6537;SDS011;3302;52.508;13.454;2022-08-03T03:15:26;4.83;;;3.80;;
6537;SDS011;3302;52.508;13.454;2022-08-03T03:17:55;6.70;;;4.27;;
6537;SDS011;3302;52.508;13.454;2022-08-03T03:20:23;6.20;;;4.03;;
6537;SDS011;3302;52.508;13.454;2022-08-03T03:22:49;5.30;;;3.87;;
6537;SDS011;3302;52.508;13.454;2022-08-03T03:25:16;4.13;;;3.30;;
6537;SDS011;3302;52.508;13.454;2022-08-03T03:27:43;5.60;;;3.83;;
6537;SDS011;3302;52.508;13.454;2022-08-03T03:30:09;7.00;;;4.23;;
6537;SDS011;3302;52.508;13.454;2022-08-03T03:32:36;4.93;;;3.40;;
6537;SDS011;3302;52.508;13.454;2022-08-03T03:35:04;9.10;;;3.57;;
6537;SDS011;3302;52.508;13.454;2022-08-03T03:37:30;6.50;;;3.80;;
6537;SDS011;3302;52.508;13.454;2022-08-03T03:39:56;4.87;;;3.30;;
6537;SDS011;3302;52.508;13.454;2022-08-03T03:42:22;4.17;;;3.27;;
6537;SDS011;3302;52.508;13.454;2022-08-03T03:44:49;6.27;;;3.20;;
6537;SDS011;3302;52.508;13.454;2022-08-03T03:47:16;6.40;;;4.10;;
6537;SDS011;3302;52.508;13.454;2022-08-03T03:49:42;5.63;;;3.47;;
6537;SDS011;3302;52.508;13.454;2022-08-03T03:52:08;8.37;;;4.27;;
6537;SDS011;3302;52.508;13.454;2022-08-03T03:54:38;4.77;;;3.63;;
6537;SDS011;3302;52.508;13.454;2022-08-03T03:57:07;5.33;;;4.07;;
6537;SDS011;3302;52.508;13.454;2022-08-03T03:59:41;6.40;;;3.80;;
6537;SDS011;3302;52.508;13.454;2022-08-03T04:02:07;5.07;;;3.70;;
6537;SDS011;3302;52.508;13.454;2022-08-03T04:04:34;5.20;;;3.43;;
6537;SDS011;3302;52.508;13.454;2022-08-03T04:07:19;5.50;;;3.60;;
6537;SDS011;3302;52.508;13.454;2022-08-03T04:10:06;7.63;;;3.93;;
6537;SDS011;3302;52.508;13.454;2022-08-03T04:12:56;5.07;;;3.90;;
6537;SDS011;3302;52.508;13.454;2022-08-03T04:15:24;5.03;;;3.50;;
6537;SDS011;3302;52.508;13.454;2022-08-03T04:17:52;5.87;;;3.77;;
6537;SDS011;3302;52.508;13.454;2022-08-03T04:20:23;8.17;;;4.00;;
6537;SDS011;3302;52.508;13.454;2022-08-03T04:22:54;4.83;;;3.70;;
6537;SDS011;3302;52.508;13.454;2022-08-03T04:25:24;5.87;;;3.53;;
6537;SDS011;3302;52.508;13.454;2022-08-03T04:27:54;5.27;;;3.43;;
6537;SDS011;3302;52.508;13.454;2022-08-03T04:30:25;4.47;;;3.30;;
6537;SDS011;3302;52.508;13.454;2022-08-03T04:32:52;6.80;;;3.20;;
6537;SDS011;3302;52.508;13.454;2022-08-03T04:35:20;5.70;;;3.77;;
6537;SDS011;3302;52.508;13.454;2022-08-03T04:37:48;4.73;;;3.10;;
6537;SDS011;3302;52.508;13.454;2022-08-03T04:40:26;7.20;;;3.73;;
6537;SDS011;3302;52.508;13.454;2022-08-03T04:42:56;6.07;;;3.53;;
6537;SDS011;3302;52.508;13.454;2022-08-03T04:45:24;7.27;;;4.20;;
6537;SDS011;3302;52.508;13.454;2022-08-03T04:47:51;5.67;;;4.17;;
6537;SDS011;3302;52.508;13.454;2022-08-03T04:50:18;5.03;;;3.37;;
6537;SDS011;3302;52.508;13.454;2022-08-03T04:52:44;5.90;;;3.70;;
6537;SDS011;3302;52.508;13.454;2022-08-03T04:55:10;4.77;;;3.30;;
6537;SDS011;3302;52.508;13.454;2022-08-03T04:57:35;5.73;;;3.80;;
6537;SDS011;3302;52.508;13.454;2022-08-03T05:00:02;6.23;;;3.60;;
6537;SDS011;3302;52.508;13.454;2022-08-03T05:02:29;4.93;;;3.53;;
6537;SDS011;3302;52.508;13.454;2022-08-03T05:04:55;7.67;;;3.50;;
6537;SDS011;3302;52.508;13.454;2022-08-03T05:07:21;3.40;;;3.10;;
6537;SDS011;3302;52.508;13.454;2022-08-03T05:09:47;5.60;;;3.70;;
6537;SDS011;3302;52.508;13.454;2022-08-03T05:12:13;5.00;;;3.17;;
6537;SDS011;3302;52.508;13.454;2022-08-03T05:14:38;4.53;;;3.67;;
6537;SDS011;3302;52.508;13.454;2022-08-03T05:17:04;4.00;;;3.10;;
6537;SDS011;3302;52.508;13.454;2022-08-03T05:19:30;5.53;;;3.43;;
6537;SDS011;3302;52.508;13.454;2022-08-03T05:21:56;4.37;;;3.37;;
6537;SDS011;3302;52.508;13.454;2022-08-03T05:24:22;5.27;;;3.40;;
6537;SDS011;3302;52.508;13.454;2022-08-03T05:26:48;11.87;;;4.70;;
6537;SDS011;3302;52.508;13.454;2022-08-03T05:29:14;7.70;;;3.80;;
6537;SDS011;3302;52.508;13.454;2022-08-03T05:31:40;4.80;;;3.40;;
6537;SDS011;3302;52.508;13.454;2022-08-03T05:34:06;5.83;;;3.30;;
6537;SDS011;3302;52.508;13.454;2022-08-03T05:36:31;6.37;;;3.67;;
6537;SDS011;3302;52.508;13.454;2022-08-03T05:38:57;5.97;;;3.73;;
6537;SDS011;3302;52.508;13.454;2022-08-03T05:41:23;6.30;;;4.40;;
6537;SDS011;3302;52.508;13.454;2022-08-03T05:43:52;6.23;;;3.80;;
6537;SDS011;3302;52.508;13.454;2022-08-03T05:46:19;8.60;;;3.83;;
6537;SDS011;3302;52.508;13.454;2022-08-03T05:48:46;5.93;;;3.90;;
6537;SDS011;3302;52.508;13.454;2022-08-03T05:51:12;10.50;;;3.90;;
6537;SDS011;3302;52.508;13.454;2022-08-03T05:53:38;5.07;;;3.40;;
6537;SDS011;3302;52.508;13.454;2022-08-03T05:56:05;6.10;;;3.47;;
6537;SDS011;3302;52.508;13.454;2022-08-03T05:58:31;4.80;;;3.00;;
6537;SDS011;3302;52.508;13.454;2022-08-03T06:00:57;6.50;;;3.63;;
6537;SDS011;3302;52.508;13.454;2022-08-03T06:03:22;7.70;;;3.33;;
6537;SDS011;3302;52.508;13.454;2022-08-03T06:05:48;5.93;;;3.60;;
6537;SDS011;3302;52.508;13.454;2022-08-03T06:08:14;6.13;;;3.40;;
6537;SDS011;3302;52.508;13.454;2022-08-03T06:10:40;6.87;;;3.50;;
6537;SDS011;3302;52.508;13.454;2022-08-03T06:13:05;4.63;;;3.30;;
6537;SDS011;3302;52.508;13.454;2022-08-03T06:15:31;5.77;;;3.73;;
6537;SDS011;3302;52.508;13.454;2022-08-03T06:17:59;8.90;;;3.73;;
6537;SDS011;3302;52.508;13.454;2022-08-03T06:20:25;8.57;;;4.27;;
6537;SDS011;3302;52.508;13.454;2022-08-03T06:22:51;6.67;;;3.77;;
6537;SDS011;3302;52.508;13.454;2022-08-03T06:25:17;9.17;;;3.70;;
6537;SDS011;3302;52.508;13.454;2022-08-03T06:27:43;10.03;;;3.93;;
6537;SDS011;3302;52.508;13.454;2022-08-03T06:30:10;13.60;;;3.67;;
6537;SDS011;3302;52.508;13.454;2022-08-03T06:32:40;13.03;;;4.20;;
6537;SDS011;3302;52.508;13.454;2022-08-03T06:35:06;9.53;;;3.70;;
6537;SDS011;3302;52.508;13.454;2022-08-03T06:37:42;5.80;;;3.13;;
6537;SDS011;3302;52.508;13.454;2022-08-03T06:40:14;11.87;;;3.53;;
6537;SDS011;3302;52.508;13.454;2022-08-03T06:42:45;6.63;;;2.87;;
6537;SDS011;3302;52.508;13.454;2022-08-03T06:45:10;8.17;;;3.23;;
6537;SDS011;3302;52.508;13.454;2022-08-03T06:47:37;6.97;;;3.90;;
6537;SDS011;3302;52.508;13.454;2022-08-03T06:50:06;4.97;;;3.47;;
6537;SDS011;3302;52.508;13.454;2022-08-03T06:52:34;5.53;;;2.93;;
6537;SDS011;3302;52.508;13.454;2022-08-03T06:55:00;9.10;;;3.13;;
6537;SDS011;3302;52.508;13.454;2022-08-03T06:57:26;7.57;;;3.00;;
6537;SDS011;3302;52.508;13.454;2022-08-03T06:59:51;9.17;;;3.47;;
6537;SDS011;3302;52.508;13.454;2022-08-03T07:02:17;5.43;;;2.97;;
6537;SDS011;3302;52.508;13.454;2022-08-03T07:04:44;6.20;;;3.27;;
6537;SDS011;3302;52.508;13.454;2022-08-03T07:07:10;8.10;;;3.40;;
6537;SDS011;3302;52.508;13.454;2022-08-03T07:09:36;9.13;;;2.97;;
6537;SDS011;3302;52.508;13.454;2022-08-03T07:12:02;5.73;;;2.40;;
6537;SDS011;3302;52.508;13.454;2022-08-03T07:14:29;6.27;;;2.67;;
6537;SDS011;3302;52.508;13.454;2022-08-03T07:16:55;3.53;;;2.37;;
6537;SDS011;3302;52.508;13.454;2022-08-03T07:19:21;4.77;;;2.40;;
6537;SDS011;3302;52.508;13.454;2022-08-03T07:21:46;5.03;;;2.73;;
6537;SDS011;3302;52.508;13.454;2022-08-03T07:24:12;4.57;;;2.87;;
6537;SDS011;3302;52.508;13.454;2022-08-03T07:26:38;5.07;;;3.50;;
6537;SDS011;3302;52.508;13.454;2022-08-03T07:29:04;4.40;;;2.70;;
6537;SDS011;3302;52.508;13.454;2022-08-03T07:31:30;2.80;;;2.10;;
6537;SDS011;3302;52.508;13.454;2022-08-03T07:33:55;10.67;;;4.00;;
6537;SDS011;3302;52.508;13.454;2022-08-03T07:36:21;5.73;;;2.63;;
6537;SDS011;3302;52.508;13.454;2022-08-03T07:38:48;5.47;;;2.50;;
6537;SDS011;3302;52.508;13.454;2022-08-03T07:41:15;2.90;;;1.95;;
6537;SDS011;3302;52.508;13.454;2022-08-03T07:43:40;4.53;;;2.10;;
6537;SDS011;3302;52.508;13.454;2022-08-03T07:46:06;3.00;;;2.37;;
6537;SDS011;3302;52.508;13.454;2022-08-03T07:48:32;5.82;;;2.10;;
6537;SDS011;3302;52.508;13.454;2022-08-03T07:50:58;3.13;;;2.00;;
6537;SDS011;3302;52.508;13.454;2022-08-03T07:53:23;5.23;;;2.37;;
6537;SDS011;3302;52.508;13.454;2022-08-03T07:55:49;2.97;;;2.20;;
6537;SDS011;3302;52.508;13.454;2022-08-03T07:58:15;3.73;;;2.20;;
6537;SDS011;3302;52.508;13.454;2022-08-03T08:00:42;3.60;;;1.90;;
6537;SDS011;3302;52.508;13.454;2022-08-03T08:03:09;4.00;;;2.17;;
6537;SDS011;3302;52.508;13.454;2022-08-03T08:05:36;7.38;;;2.42;;
6537;SDS011;3302;52.508;13.454;2022-08-03T08:08:02;6.47;;;2.10;;
6537;SDS011;3302;52.508;13.454;2022-08-03T08:10:28;3.55;;;2.20;;
6537;SDS011;3302;52.508;13.454;2022-08-03T08:12:55;3.88;;;1.90;;
6537;SDS011;3302;52.508;13.454;2022-08-03T08:15:21;4.85;;;1.88;;
6537;SDS011;3302;52.508;13.454;2022-08-03T08:17:51;3.00;;;1.92;;
6537;SDS011;3302;52.508;13.454;2022-08-03T08:20:19;3.45;;;1.83;;
6537;SDS011;3302;52.508;13.454;2022-08-03T08:22:49;2.72;;;1.90;;
6537;SDS011;3302;52.508;13.454;2022-08-03T08:25:15;5.57;;;2.20;;
6537;SDS011;3302;52.508;13.454;2022-08-03T08:27:42;3.07;;;2.13;;
6537;SDS011;3302;52.508;13.454;2022-08-03T08:30:09;3.78;;;2.15;;
6537;SDS011;3302;52.508;13.454;2022-08-03T08:32:35;4.00;;;1.83;;
6537;SDS011;3302;52.508;13.454;2022-08-03T08:35:02;4.05;;;1.98;;
6537;SDS011;3302;52.508;13.454;2022-08-03T08:37:28;2.78;;;2.20;;
6537;SDS011;3302;52.508;13.454;2022-08-03T08:39:57;3.95;;;1.98;;
6537;SDS011;3302;52.508;13.454;2022-08-03T08:42:23;5.30;;;2.03;;
6537;SDS011;3302;52.508;13.454;2022-08-03T08:44:49;5.30;;;2.40;;
6537;SDS011;3302;52.508;13.454;2022-08-03T08:47:17;5.03;;;2.65;;
6537;SDS011;3302;52.508;13.454;2022-08-03T08:49:43;4.63;;;2.03;;
6537;SDS011;3302;52.508;13.454;2022-08-03T08:52:12;3.25;;;1.70;;
6537;SDS011;3302;52.508;13.454;2022-08-03T08:54:40;3.00;;;1.98;;
6537;SDS011;3302;52.508;13.454;2022-08-03T08:57:08;3.08;;;2.00;;
6537;SDS011;3302;52.508;13.454;2022-08-03T08:59:35;2.30;;;1.77;;
6537;SDS011;3302;52.508;13.454;2022-08-03T09:02:01;2.58;;;1.75;;
6537;SDS011;3302;52.508;13.454;2022-08-03T09:04:28;3.60;;;2.20;;
6537;SDS011;3302;52.508;13.454;2022-08-03T09:06:54;2.65;;;2.13;;
6537;SDS011;3302;52.508;13.454;2022-08-03T09:09:20;2.75;;;1.92;;
6537;SDS011;3302;52.508;13.454;2022-08-03T09:11:46;4.22;;;2.13;;
6537;SDS011;3302;52.508;13.454;2022-08-03T09:14:13;3.42;;;2.03;;
6537;SDS011;3302;52.508;13.454;2022-08-03T09:16:54;4.88;;;2.05;;
6537;SDS011;3302;52.508;13.454;2022-08-03T09:19:27;1.90;;;1.70;;
6537;SDS011;3302;52.508;13.454;2022-08-03T09:22:12;2.70;;;1.90;;
6537;SDS011;3302;52.508;13.454;2022-08-03T09:27:22;2.25;;;2.00;;
6537;SDS011;3302;52.508;13.454;2022-08-03T09:29:52;3.35;;;2.00;;
6537;SDS011;3302;52.508;13.454;2022-08-03T09:32:23;4.32;;;2.22;;
6537;SDS011;3302;52.508;13.454;2022-08-03T09:34:49;2.85;;;1.85;;
6537;SDS011;3302;52.508;13.454;2022-08-03T09:37:17;2.05;;;1.85;;
6537;SDS011;3302;52.508;13.454;2022-08-03T09:39:45;2.75;;;1.88;;
6537;SDS011;3302;52.508;13.454;2022-08-03T09:42:12;4.97;;;2.20;;
6537;SDS011;3302;52.508;13.454;2022-08-03T09:44:40;3.15;;;2.20;;
6537;SDS011;3302;52.508;13.454;2022-08-03T09:47:08;3.30;;;2.40;;
6537;SDS011;3302;52.508;13.454;2022-08-03T09:49:38;2.58;;;1.90;;
6537;SDS011;3302;52.508;13.454;2022-08-03T09:52:50;4.75;;;1.98;;
6537;SDS011;3302;52.508;13.454;2022-08-03T09:54:59;10.30;;;2.40;;
6537;SDS011;3302;52.508;13.454;2022-08-03T09:57:27;3.88;;;2.10;;
6537;SDS011;3302;52.508;13.454;2022-08-03T10:00:04;8.00;;;2.42;;
6537;SDS011;3302;52.508;13.454;2022-08-03T10:02:34;3.97;;;1.85;;
6537;SDS011;3302;52.508;13.454;2022-08-03T10:05:01;3.10;;;2.05;;
6537;SDS011;3302;52.508;13.454;2022-08-03T10:07:27;2.25;;;1.80;;
6537;SDS011;3302;52.508;13.454;2022-08-03T10:12:20;2.95;;;1.75;;
6537;SDS011;3302;52.508;13.454;2022-08-03T10:14:46;1.98;;;1.77;;
6537;SDS011;3302;52.508;13.454;2022-08-03T10:17:12;2.35;;;1.88;;
6537;SDS011;3302;52.508;13.454;2022-08-03T10:19:38;2.20;;;2.00;;
6537;SDS011;3302;52.508;13.454;2022-08-03T10:22:15;2.67;;;1.80;;
6537;SDS011;3302;52.508;13.454;2022-08-03T10:24:57;1.92;;;1.60;;
6537;SDS011;3302;52.508;13.454;2022-08-03T10:27:26;2.25;;;1.75;;
6537;SDS011;3302;52.508;13.454;2022-08-03T10:30:00;2.15;;;1.90;;
6537;SDS011;3302;52.508;13.454;2022-08-03T10:32:29;3.80;;;1.77;;
6537;SDS011;3302;52.508;13.454;2022-08-03T10:35:06;2.42;;;2.10;;
6537;SDS011;3302;52.508;13.454;2022-08-03T10:37:36;3.22;;;1.92;;
6537;SDS011;3302;52.508;13.454;2022-08-03T10:40:07;3.28;;;1.70;;
6537;SDS011;3302;52.508;13.454;2022-08-03T10:42:36;5.88;;;2.20;;
6537;SDS011;3302;52.508;13.454;2022-08-03T10:45:06;3.85;;;2.22;;
6537;SDS011;3302;52.508;13.454;2022-08-03T10:47:39;2.05;;;1.85;;
6537;SDS011;3302;52.508;13.454;2022-08-03T10:50:05;2.67;;;2.00;;
6537;SDS011;3302;52.508;13.454;2022-08-03T10:52:32;3.60;;;1.90;;
6537;SDS011;3302;52.508;13.454;2022-08-03T10:54:58;6.72;;;2.25;;
6537;SDS011;3302;52.508;13.454;2022-08-03T10:58:02;2.40;;;2.20;;
6537;SDS011;3302;52.508;13.454;2022-08-03T11:00:28;3.03;;;1.90;;
6537;SDS011;3302;52.508;13.454;2022-08-03T11:03:13;5.75;;;2.08;;
6537;SDS011;3302;52.508;13.454;2022-08-03T11:05:40;3.95;;;2.28;;
6537;SDS011;3302;52.508;13.454;2022-08-03T11:08:25;2.35;;;2.13;;
6537;SDS011;3302;52.508;13.454;2022-08-03T11:10:56;2.55;;;1.67;;
6537;SDS011;3302;52.508;13.454;2022-08-03T11:13:25;1.77;;;1.67;;
6537;SDS011;3302;52.508;13.454;2022-08-03T11:15:54;1.70;;;1.60;;
6537;SDS011;3302;52.508;13.454;2022-08-03T11:18:20;4.38;;;2.10;;
6537;SDS011;3302;52.508;13.454;2022-08-03T11:20:52;4.28;;;2.00;;
6537;SDS011;3302;52.508;13.454;2022-08-03T11:28:42;3.10;;;2.10;;
6537;SDS011;3302;52.508;13.454;2022-08-03T11:34:03;4.38;;;2.10;;
6537;SDS011;3302;52.508;13.454;2022-08-03T11:36:30;2.70;;;1.98;;
6537;SDS011;3302;52.508;13.454;2022-08-03T11:39:15;2.83;;;1.95;;
6537;SDS011;3302;52.508;13.454;2022-08-03T11:41:41;2.78;;;2.00;;
6537;SDS011;3302;52.508;13.454;2022-08-03T11:44:07;6.03;;;2.33;;
6537;SDS011;3302;52.508;13.454;2022-08-03T11:46:36;2.40;;;2.10;;
6537;SDS011;3302;52.508;13.454;2022-08-03T11:49:03;4.05;;;2.17;;
6537;SDS011;3302;52.508;13.454;2022-08-03T11:51:31;2.72;;;2.20;;
6537;SDS011;3302;52.508;13.454;2022-08-03T11:53:58;2.05;;;1.88;;
6537;SDS011;3302;52.508;13.454;2022-08-03T11:56:25;2.05;;;1.90;;
6537;SDS011;3302;52.508;13.454;2022-08-03T11:58:53;3.47;;;2.17;;
6537;SDS011;3302;52.508;13.454;2022-08-03T12:01:20;4.05;;;2.28;;
6537;SDS011;3302;52.508;13.454;2022-08-03T12:03:47;3.80;;;2.20;;
6537;SDS011;3302;52.508;13.454;2022-08-03T12:06:14;2.97;;;2.08;;
6537;SDS011;3302;52.508;13.454;2022-08-03T12:08:41;4.30;;;2.42;;
6537;SDS011;3302;52.508;13.454;2022-08-03T12:11:08;5.53;;;2.20;;
6537;SDS011;3302;52.508;13.454;2022-08-03T12:16:02;2.33;;;2.10;;
6537;SDS011;3302;52.508;13.454;2022-08-03T12:18:28;3.28;;;2.03;;
6537;SDS011;3302;52.508;13.454;2022-08-03T12:21:02;2.20;;;2.00;;
6537;SDS011;3302;52.508;13.454;2022-08-03T12:23:30;4.32;;;2.53;;
6537;SDS011;3302;52.508;13.454;2022-08-03T12:26:00;4.50;;;2.15;;
6537;SDS011;3302;52.508;13.454;2022-08-03T12:28:31;2.97;;;1.90;;
6537;SDS011;3302;52.508;13.454;2022-08-03T12:31:04;4.40;;;1.80;;
6537;SDS011;3302;52.508;13.454;2022-08-03T12:33:32;3.50;;;2.20;;
6537;SDS011;3302;52.508;13.454;2022-08-03T12:36:22;4.03;;;1.92;;
6537;SDS011;3302;52.508;13.454;2022-08-03T12:38:55;5.18;;;2.22;;
6537;SDS011;3302;52.508;13.454;2022-08-03T12:41:41;3.55;;;2.10;;
6537;SDS011;3302;52.508;13.454;2022-08-03T12:44:07;3.67;;;2.05;;
6537;SDS011;3302;52.508;13.454;2022-08-03T12:46:37;3.30;;;1.90;;
6537;SDS011;3302;52.508;13.454;2022-08-03T12:49:08;4.97;;;2.58;;
6537;SDS011;3302;52.508;13.454;2022-08-03T12:54:07;4.72;;;2.42;;
6537;SDS011;3302;52.508;13.454;2022-08-03T12:56:34;2.47;;;2.00;;
6537;SDS011;3302;52.508;13.454;2022-08-03T12:59:00;4.28;;;2.20;;
6537;SDS011;3302;52.508;13.454;2022-08-03T13:01:46;2.78;;;2.20;;
6537;SDS011;3302;52.508;13.454;2022-08-03T13:04:11;3.13;;;2.70;;
6537;SDS011;3302;52.508;13.454;2022-08-03T13:06:56;6.32;;;2.70;;
6537;SDS011;3302;52.508;13.454;2022-08-03T13:09:27;3.75;;;2.20;;
6537;SDS011;3302;52.508;13.454;2022-08-03T13:12:06;2.95;;;1.83;;
6537;SDS011;3302;52.508;13.454;2022-08-03T13:14:33;2.35;;;2.15;;
6537;SDS011;3302;52.508;13.454;2022-08-03T13:16:59;3.88;;;2.25;;
6537;SDS011;3302;52.508;13.454;2022-08-03T13:19:25;2.10;;;1.90;;
6537;SDS011;3302;52.508;13.454;2022-08-03T13:21:50;2.67;;;1.77;;
6537;SDS011;3302;52.508;13.454;2022-08-03T13:24:16;3.25;;;1.98;;
6537;SDS011;3302;52.508;13.454;2022-08-03T13:26:43;2.17;;;1.80;;
6537;SDS011;3302;52.508;13.454;2022-08-03T13:29:09;2.30;;;1.83;;
6537;SDS011;3302;52.508;13.454;2022-08-03T13:31:35;2.83;;;1.98;;
6537;SDS011;3302;52.508;13.454;2022-08-03T13:34:01;4.93;;;1.85;;
6537;SDS011;3302;52.508;13.454;2022-08-03T13:36:27;3.47;;;2.60;;
6537;SDS011;3302;52.508;13.454;2022-08-03T13:38:52;4.18;;;2.20;;
6537;SDS011;3302;52.508;13.454;2022-08-03T13:41:18;2.45;;;2.10;;
6537;SDS011;3302;52.508;13.454;2022-08-03T13:43:44;4.85;;;2.28;;
6537;SDS011;3302;52.508;13.454;2022-08-03T13:46:09;7.35;;;2.50;;
6537;SDS011;3302;52.508;13.454;2022-08-03T13:48:35;5.25;;;2.13;;
6537;SDS011;3302;52.508;13.454;2022-08-03T13:51:01;4.18;;;2.97;;
6537;SDS011;3302;52.508;13.454;2022-08-03T13:53:27;2.65;;;2.08;;
6537;SDS011;3302;52.508;13.454;2022-08-03T13:55:53;8.18;;;2.30;;
6537;SDS011;3302;52.508;13.454;2022-08-03T13:58:19;3.25;;;2.20;;
6537;SDS011;3302;52.508;13.454;2022-08-03T14:00:44;6.07;;;2.25;;
6537;SDS011;3302;52.508;13.454;2022-08-03T14:03:10;3.30;;;2.45;;
6537;SDS011;3302;52.508;13.454;2022-08-03T14:05:36;2.67;;;1.80;;
6537;SDS011;3302;52.508;13.454;2022-08-03T14:08:03;3.08;;;2.22;;
6537;SDS011;3302;52.508;13.454;2022-08-03T14:10:34;3.15;;;2.60;;
6537;SDS011;3302;52.508;13.454;2022-08-03T14:13:01;2.35;;;1.90;;
6537;SDS011;3302;52.508;13.454;2022-08-03T14:15:28;3.30;;;2.22;;
6537;SDS011;3302;52.508;13.454;2022-08-03T14:17:54;4.75;;;2.20;;
6537;SDS011;3302;52.508;13.454;2022-08-03T14:20:21;2.30;;;1.67;;
6537;SDS011;3302;52.508;13.454;2022-08-03T14:22:47;2.00;;;1.70;;
6537;SDS011;3302;52.508;13.454;2022-08-03T14:25:13;2.17;;;1.90;;
6537;SDS011;3302;52.508;13.454;2022-08-03T14:27:38;3.45;;;2.08;;
6537;SDS011;3302;52.508;13.454;2022-08-03T14:30:04;6.38;;;2.30;;
6537;SDS011;3302;52.508;13.454;2022-08-03T14:32:30;2.20;;;1.95;;
6537;SDS011;3302;52.508;13.454;2022-08-03T14:34:56;4.15;;;2.40;;
6537;SDS011;3302;52.508;13.454;2022-08-03T14:37:22;4.28;;;2.00;;
6537;SDS011;3302;52.508;13.454;2022-08-03T14:39:47;4.82;;;2.83;;
6537;SDS011;3302;52.508;13.454;2022-08-03T14:42:13;5.35;;;2.13;;
6537;SDS011;3302;52.508;13.454;2022-08-03T14:44:40;4.68;;;2.10;;
6537;SDS011;3302;52.508;13.454;2022-08-03T14:47:05;5.05;;;2.13;;
6537;SDS011;3302;52.508;13.454;2022-08-03T14:49:31;2.20;;;2.00;;
6537;SDS011;3302;52.508;13.454;2022-08-03T14:51:57;2.45;;;2.10;;
6537;SDS011;3302;52.508;13.454;2022-08-03T14:54:23;3.00;;;2.22;;
6537;SDS011;3302;52.508;13.454;2022-08-03T14:56:50;4.78;;;2.70;;
6537;SDS011;3302;52.508;13.454;2022-08-03T14:59:16;2.55;;;1.90;;
6537;SDS011;3302;52.508;13.454;2022-08-03T15:01:41;2.35;;;2.15;;
6537;SDS011;3302;52.508;13.454;2022-08-03T15:04:07;4.50;;;2.38;;
6537;SDS011;3302;52.508;13.454;2022-08-03T15:06:33;2.33;;;2.08;;
6537;SDS011;3302;52.508;13.454;2022-08-03T15:08:59;2.25;;;1.90;;
6537;SDS011;3302;52.508;13.454;2022-08-03T15:11:24;2.60;;;2.40;;
6537;SDS011;3302;52.508;13.454;2022-08-03T15:13:50;4.18;;;2.90;;
6537;SDS011;3302;52.508;13.454;2022-08-03T15:16:16;2.38;;;1.92;;
6537;SDS011;3302;52.508;13.454;2022-08-03T15:18:42;2.38;;;1.90;;
6537;SDS011;3302;52.508;13.454;2022-08-03T15:21:07;2.60;;;2.40;;
6537;SDS011;3302;52.508;13.454;2022-08-03T15:23:33;2.38;;;1.92;;
6537;SDS011;3302;52.508;13.454;2022-08-03T15:25:59;2.40;;;2.20;;
6537;SDS011;3302;52.508;13.454;2022-08-03T15:28:25;3.20;;;2.42;;
6537;SDS011;3302;52.508;13.454;2022-08-03T15:30:50;4.47;;;3.10;;